Aérodrome :
LOGIN :

S'inscrire | Disclaimer

   EN    FR    IT 

 










Légende :    VFR   VFR Marginal   IFR   IFR Intensif   IFR Très Intensif
Visi : 
Plafond : 
>= 8 km
>= 3000ft
5 à 8 km
1000 à 3000 ft
1500m à 5 km
500 à 1000 ft
800 à 1500m
200 à 500 ft
< 800m
< 200 ft
Symboles :   Orages  Brouillard  Fortes neiges  Fortes précipitations  Vent > 20 kt
SIGMETs :   Divers  Orages  Givrage  Turbulence  Onde Orograph.  Cendres Volcan.






- Altitude de l'aérodrome : 148 ft
- Code IATA : KHE


UKOH - Chernobayevka

DERNIER METAR :
  • 201430Z 03003MPS 340V060 CAVOK 25/02 Q1019 R03/CLRD// NOSIG

METARs EXPIRÉS :
  • 201400Z 03003MPS 340V090 CAVOK 25/02 Q1019 R03/CLRD// NOSIG
  • 201330Z VRB01MPS CAVOK 25/03 Q1019 R03/CLRD// NOSIG
  • 201300Z 03002MPS 300V070 CAVOK 25/03 Q1019 R03/CLRD// NOSIG
  • 201230Z 02003MPS 300V090 CAVOK 25/04 Q1019 R03/CLRD// NOSIG
  • 201200Z 03003MPS 300V100 CAVOK 25/04 Q1020 R03/CLRD// NOSIG

TAF TAF UKOH
Valide du 20 à 15h jusqu'au 21 à 00h UTC


201402Z 2015/2024 05003MPS CAVOK



MET'MAP, la Météo Aéronautique d'un coup d'oeil ! - Copyright ORBIFLY Décembre 2007 - Disclaimer

ORBIFLY MET'MAP TEAM :

Programmation & Développement : Alexandra Zaïnal
Sur une idée originale de : Baudouin d'Aumeries
Assistance à la programmation : Marc-Olivier Méhu
Soutien technique & logistique : Manuel Goepfert

Contact : metmap@orbifly.com




SOURCES & CREDITS :

   NOAA